createdAt,value
2022-10-29T00:04:22.112Z,47.63
2022-10-29T00:09:24.423Z,45.97
2022-10-29T00:14:26.735Z,44.87
2022-10-29T00:19:29.101Z,40.30
2022-10-29T00:24:31.396Z,45.20
2022-10-29T00:29:33.760Z,47.30
2022-10-29T00:34:37.174Z,55.83
2022-10-29T00:39:39.497Z,50.37
2022-10-29T00:44:41.951Z,50.47
2022-10-29T00:49:51.089Z,47.90
2022-10-29T00:54:54.754Z,48.73
2022-10-29T00:59:57.342Z,51.53
2022-10-29T01:05:01.850Z,62.30
2022-10-29T01:10:04.638Z,68.97
2022-10-29T01:15:15.895Z,96.30
2022-10-29T01:20:45.498Z,92.13
2022-10-29T01:26:20.717Z,80.67
2022-10-29T01:31:47.721Z,68.73
2022-10-29T01:37:11.660Z,82.10
2022-10-29T01:42:38.957Z,92.87
2022-10-29T01:47:58.404Z,81.67
2022-10-29T01:53:03.717Z,77.43
2022-10-29T01:58:07.584Z,76.73
2022-10-29T02:03:44.754Z,71.07
2022-10-29T02:08:49.744Z,64.60
2022-10-29T02:14:02.828Z,60.80
2022-10-29T02:19:06.097Z,52.60
2022-10-29T02:24:08.692Z,43.20
2022-10-29T02:29:10.959Z,44.83
2022-10-29T02:34:13.349Z,47.00
2022-10-29T02:39:15.750Z,42.93
2022-10-29T02:44:18.136Z,45.67
2022-10-29T02:49:20.443Z,45.60
2022-10-29T02:54:22.713Z,40.13
2022-10-29T02:59:25.074Z,25.57
2022-10-29T03:04:27.724Z,32.33
2022-10-29T03:09:30.042Z,36.83
2022-10-29T03:14:32.361Z,29.23
2022-10-29T03:19:34.675Z,28.37
2022-10-29T03:24:36.995Z,26.43
2022-10-29T03:29:39.295Z,27.00
2022-10-29T03:34:41.590Z,28.57
2022-10-29T03:39:43.913Z,27.43
2022-10-29T03:44:46.261Z,26.03
2022-10-29T03:49:48.602Z,30.27
2022-10-29T03:54:50.911Z,24.70
2022-10-29T03:59:53.225Z,26.13
2022-10-29T04:04:55.493Z,24.80
2022-10-29T04:09:57.819Z,29.37
2022-10-29T04:15:00.134Z,28.70
2022-10-29T04:20:02.431Z,28.13
2022-10-29T04:30:28.035Z,36.33
2022-10-29T04:35:30.317Z,28.23
2022-10-29T04:40:33.035Z,30.20
2022-10-29T04:45:35.380Z,24.07
2022-10-29T04:50:38.801Z,24.57
2022-10-29T04:55:41.376Z,21.80
2022-10-29T05:00:43.840Z,22.70
2022-10-29T05:05:46.237Z,18.80
2022-10-29T05:10:48.540Z,26.87
2022-10-29T05:15:53.419Z,24.77
2022-10-29T05:20:56.976Z,22.40
2022-10-29T05:25:59.254Z,24.50
2022-10-29T05:31:02.534Z,24.50
2022-10-29T05:36:05.328Z,18.70
2022-10-29T05:41:08.116Z,26.87
2022-10-29T05:46:10.436Z,25.70
2022-10-29T05:51:12.777Z,26.63
2022-10-29T05:56:15.126Z,26.50
2022-10-29T06:01:19.890Z,28.30
2022-10-29T06:06:22.394Z,34.07
2022-10-29T06:11:24.760Z,26.07
2022-10-29T06:16:27.027Z,46.37
2022-10-29T06:21:29.325Z,21.73
2022-10-29T06:26:31.744Z,27.77
2022-10-29T06:31:34.029Z,23.20
2022-10-29T06:36:36.323Z,24.60
2022-10-29T06:41:38.594Z,29.57
2022-10-29T06:46:41.689Z,25.90
2022-10-29T06:51:44.029Z,24.90
2022-10-29T06:56:46.332Z,19.73
2022-10-29T07:01:48.670Z,24.43
2022-10-29T07:06:51.087Z,30.33
2022-10-29T07:11:53.399Z,22.83
2022-10-29T07:16:55.680Z,39.93
2022-10-29T07:21:57.964Z,59.23
2022-10-29T07:27:01.856Z,35.37
2022-10-29T07:32:04.257Z,25.37
2022-10-29T07:37:08.104Z,38.20
2022-10-29T07:42:10.437Z,39.30
2022-10-29T07:47:12.713Z,31.77
2022-10-29T07:52:15.108Z,31.70
2022-10-29T07:57:17.426Z,25.70
2022-10-29T08:02:19.756Z,26.10
2022-10-29T08:07:22.145Z,48.73
2022-10-29T08:12:24.517Z,46.07
2022-10-29T08:17:29.821Z,23.87
2022-10-29T08:22:32.086Z,27.83
2022-10-29T08:27:34.478Z,28.07
2022-10-29T08:32:36.754Z,25.73
2022-10-29T08:37:44.074Z,35.77
2022-10-29T08:43:27.486Z,32.60
2022-10-29T08:48:40.161Z,24.03
2022-10-29T08:54:17.308Z,29.53
2022-10-29T08:59:20.131Z,30.63
2022-10-29T09:04:36.510Z,28.37
2022-10-29T09:09:47.163Z,25.47
2022-10-29T09:14:52.261Z,25.00
2022-10-29T09:20:07.245Z,25.30
2022-10-29T09:25:27.963Z,27.67
2022-10-29T09:30:31.503Z,21.33
2022-10-29T09:35:39.518Z,25.10
2022-10-29T09:40:43.674Z,24.63
2022-10-29T09:46:04.843Z,25.30
2022-10-29T09:51:37.372Z,20.63
2022-10-29T09:56:44.897Z,22.07
2022-10-29T10:01:48.283Z,18.60
2022-10-29T10:07:16.833Z,22.63
2022-10-29T10:12:22.177Z,16.17
2022-10-29T10:17:24.455Z,19.20
2022-10-29T10:22:26.786Z,19.13
2022-10-29T10:27:31.182Z,19.33
2022-10-29T10:32:33.484Z,21.17
2022-10-29T10:37:35.874Z,17.40
2022-10-29T10:42:42.938Z,14.10
2022-10-29T10:47:51.433Z,24.67
2022-10-29T10:52:55.475Z,20.77
2022-10-29T10:58:19.864Z,16.80
2022-10-29T11:03:30.575Z,19.43
2022-10-29T11:08:39.072Z,18.07
2022-10-29T11:13:42.386Z,60.33
2022-10-29T11:18:58.594Z,16.20
2022-10-29T11:24:18.011Z,23.30
2022-10-29T11:29:20.258Z,16.33
2022-10-29T11:34:30.517Z,11.83
2022-10-29T11:39:45.548Z,15.97
2022-10-29T11:44:47.970Z,31.57
2022-10-29T11:50:17.007Z,23.57
2022-10-29T11:55:27.351Z,19.93
2022-10-29T12:00:44.082Z,26.97
2022-10-29T12:05:58.583Z,32.47
2022-10-29T12:11:18.469Z,19.47
2022-10-29T12:16:45.520Z,22.20
2022-10-29T12:21:57.774Z,20.63
2022-10-29T12:27:33.560Z,17.37
2022-10-29T12:32:55.776Z,16.13
2022-10-29T12:38:12.771Z,17.67
2022-10-29T12:43:29.378Z,13.73
2022-10-29T12:48:55.004Z,23.47
2022-10-29T12:54:21.585Z,15.97
2022-10-29T12:59:23.836Z,13.73
2022-10-29T13:04:28.761Z,19.77
2022-10-29T13:09:35.914Z,16.33
2022-10-29T13:14:54.387Z,25.07
2022-10-29T13:20:04.680Z,19.00
2022-10-29T13:25:38.030Z,17.93
2022-10-29T13:30:45.422Z,20.23
2022-10-29T13:36:03.147Z,23.90
2022-10-29T13:41:20.029Z,23.00
2022-10-29T13:46:45.414Z,17.37
2022-10-29T13:52:01.262Z,20.57
2022-10-29T13:57:12.741Z,24.00
2022-10-29T14:02:20.660Z,21.20
2022-10-29T14:07:35.418Z,18.47
2022-10-29T14:12:40.010Z,20.90
2022-10-29T14:17:42.308Z,16.77
2022-10-29T14:22:45.479Z,18.50
2022-10-29T14:27:47.865Z,22.80
2022-10-29T14:32:50.193Z,28.67
2022-10-29T14:37:56.873Z,27.60
2022-10-29T14:42:59.883Z,16.87
2022-10-29T14:48:09.842Z,18.17
2022-10-29T14:53:26.948Z,15.07
2022-10-29T14:58:32.241Z,41.53
2022-10-29T15:03:35.771Z,52.77
2022-10-29T15:08:43.724Z,60.00
2022-10-29T15:13:46.330Z,66.77
2022-10-29T15:18:50.813Z,88.57
2022-10-29T15:24:20.371Z,111.07
2022-10-29T15:29:32.227Z,104.40
2022-10-29T15:34:37.966Z,70.07
2022-10-29T15:39:58.754Z,51.73
2022-10-29T15:50:24.190Z,46.90
2022-10-29T15:55:31.899Z,66.80
2022-10-29T16:00:34.300Z,69.90
2022-10-29T16:05:37.403Z,88.77
2022-10-29T16:10:39.733Z,82.73
2022-10-29T16:15:44.189Z,82.87
2022-10-29T16:20:49.291Z,97.80
2022-10-29T16:25:51.576Z,104.13
2022-10-29T16:30:56.286Z,132.63
2022-10-29T16:35:58.577Z,124.00
2022-10-29T16:41:00.973Z,125.30
2022-10-29T16:46:05.458Z,155.23
2022-10-29T16:51:08.286Z,145.60
2022-10-29T16:56:10.672Z,144.20
2022-10-29T17:01:13.134Z,128.80
2022-10-29T17:06:15.574Z,121.03
2022-10-29T17:11:18.062Z,89.60
2022-10-29T17:16:20.428Z,75.83
2022-10-29T17:21:22.690Z,64.57
2022-10-29T17:26:25.273Z,59.80
2022-10-29T17:31:27.739Z,64.17
2022-10-29T17:36:30.042Z,125.77
2022-10-29T17:41:32.402Z,139.00
2022-10-29T17:46:34.693Z,173.83
2022-10-29T17:51:37.323Z,225.50
2022-10-29T17:56:39.989Z,223.93
2022-10-29T18:01:44.931Z,292.50
2022-10-29T18:06:47.350Z,241.57
2022-10-29T18:11:50.469Z,230.07
2022-10-29T18:16:52.780Z,257.80
2022-10-29T18:21:55.099Z,264.83
2022-10-29T18:26:57.399Z,291.17
2022-10-29T18:31:59.711Z,281.60
2022-10-29T18:37:02.477Z,292.17
2022-10-29T18:42:05.137Z,291.77
2022-10-29T18:47:07.504Z,364.30
2022-10-29T18:52:09.810Z,320.50
2022-10-29T18:57:15.411Z,343.00
2022-10-29T19:02:20.955Z,339.70
2022-10-29T19:07:23.445Z,334.90
2022-10-29T19:12:25.737Z,306.93
2022-10-29T19:17:28.031Z,318.03
2022-10-29T19:22:31.146Z,359.67
2022-10-29T19:27:33.616Z,331.27
2022-10-29T19:32:35.931Z,279.40
2022-10-29T19:37:39.044Z,231.97
2022-10-29T19:42:41.393Z,214.20
2022-10-29T19:47:46.396Z,215.03
2022-10-29T19:52:48.710Z,228.27
2022-10-29T19:57:51.032Z,216.07
2022-10-29T20:02:53.866Z,229.97
2022-10-29T20:07:56.551Z,223.43
2022-10-29T20:12:59.200Z,220.17
2022-10-29T20:18:01.539Z,236.13
2022-10-29T20:23:04.038Z,215.90
2022-10-29T20:28:06.356Z,247.10
2022-10-29T20:33:08.677Z,270.73
2022-10-29T20:38:11.023Z,269.17
2022-10-29T20:43:13.335Z,295.30
2022-10-29T20:48:15.763Z,281.43
2022-10-29T20:53:18.101Z,316.80
2022-10-29T20:58:21.627Z,307.50
2022-10-29T21:03:23.910Z,284.47
2022-10-29T21:13:31.631Z,249.20
2022-10-29T21:18:38.937Z,251.07
2022-10-29T21:23:41.340Z,233.77
2022-10-29T21:28:43.738Z,252.47
2022-10-29T21:33:48.513Z,269.73
2022-10-29T21:38:50.992Z,280.37
2022-10-29T21:43:53.438Z,285.70
2022-10-29T21:48:56.518Z,297.37
2022-10-29T21:53:58.899Z,297.10
2022-10-29T21:59:01.383Z,310.73
2022-10-29T22:04:03.837Z,329.20
2022-10-29T22:09:06.184Z,363.23
2022-10-29T22:14:08.530Z,365.03
2022-10-29T22:24:30.503Z,336.47
2022-10-29T22:29:32.861Z,311.63
2022-10-29T22:34:35.254Z,278.00
2022-10-29T22:39:37.549Z,275.07
2022-10-29T22:44:39.899Z,273.43
2022-10-29T22:49:42.192Z,266.80
2022-10-29T22:54:44.483Z,246.60
2022-10-29T22:59:46.830Z,247.73
2022-10-29T23:04:49.146Z,258.37
2022-10-29T23:09:51.451Z,260.57
2022-10-29T23:14:53.765Z,238.63
2022-10-29T23:19:56.290Z,235.40
2022-10-29T23:24:58.619Z,228.53
2022-10-29T23:30:00.936Z,222.57
2022-10-29T23:35:03.394Z,212.97
2022-10-29T23:40:06.291Z,205.33
2022-10-29T23:45:09.138Z,204.07
2022-10-29T23:50:11.487Z,204.03
2022-10-29T23:55:13.923Z,196.80
